Cocos Keeling Island Airport
YPCC : now visible

Aeroporto :











RITROVATECI SU...

 
LOGIN :

Iscrizione | Disclaimer

   EN    FR    IT 

 









Sommario :    VFR   VFR Marginale   IFR   IFR Intensivo   IFR Molto Intensivo
Visibilità : 
Base nubi : 
>= 8 km
>= 3000ft
5 / 8 km
1000 / 3000 ft
1500m / 5 km
500 / 1000 ft
800 / 1500m
200 / 500 ft
< 800m
< 200 ft
Simboli :   Temporali  Nebbia  Neve Forte  Precipitazioni Forti  Vento > 20 kt






- Altitudine del aeroporto : 10 ft
- Codice IATA : CCK


YPCC - Cocos Keeling Island

ULTIMO METAR :
  • 172330Z AUTO 11011KT 9999 // BKN021 OVC029 27/24 Q1013

METARs OBSOLETI :
  • 172300Z AUTO 11012KT 9999 // SCT021 SCT024 BKN049 27/23 Q1013
  • 172230Z AUTO 12015KT 9999 // SCT021 SCT031 BKN041 27/23 Q1012
  • 172200Z AUTO 12014KT 9999 // SCT022 BKN029 BKN035 27/24 Q1012
  • 172130Z AUTO 11011KT 9999 // SCT022 SCT029 OVC042 27/23 Q1012
  • 172100Z AUTO 11011KT 9999 // SCT024 SCT031 BKN038 27/23 Q1012

TAF TAF YPCC
Valido dal 17 a 18 ore il 18 a 18 ore UTC


171704Z 1718/1818 11014KT 9999 SCT020 INTER 1718/1818 2000 SHRA BKN015
FIR YMMM / Asia



MetMap, La meteo Aeronautica in un colpo d'occhio ! - Copyright ORBIFLY Dicembre 2007 - Disclaimer

ORBIFLY MET'MAP TEAM :

Programmazione e sviluppo : Alexandra Zaïnal
Concezione : Baudouin d'Aumeries
Aiuto per la programmazione : Marc-Olivier Méhu
Supporto tecnico e logistico : Manuel Goepfert
Aiuto per la traduzione : Arnaldo La Scala

Contatto : metmap@orbifly.com




FONTI E CREDITI :

   NOAA       Earth
Advisory